createdAt,value
2023-01-07T00:00:07.138Z,10.81
2023-01-07T00:05:13.294Z,11.32
2023-01-07T00:10:19.586Z,12.49
2023-01-07T00:15:25.759Z,11.78
2023-01-07T00:20:31.946Z,12.95
2023-01-07T00:25:38.127Z,13.63
2023-01-07T00:30:44.448Z,13.56
2023-01-07T00:35:50.624Z,14.53
2023-01-07T00:40:56.965Z,14.42
2023-01-07T00:46:05.795Z,14.72
2023-01-07T00:51:12.033Z,13.98
2023-01-07T00:56:18.490Z,15.25
2023-01-07T01:01:24.757Z,15.55
2023-01-07T01:06:30.818Z,15.47
2023-01-07T01:11:37.035Z,15.06
2023-01-07T01:16:43.325Z,14.46
2023-01-07T01:21:49.422Z,14.59
2023-01-07T01:26:55.587Z,14.66
2023-01-07T01:32:01.760Z,15.28
2023-01-07T01:37:07.922Z,15.06
2023-01-07T01:42:14.500Z,15.41
2023-01-07T01:47:20.678Z,15.65
2023-01-07T01:52:26.836Z,15.55
2023-01-07T01:57:32.901Z,15.21
2023-01-07T02:02:39.175Z,15.15
2023-01-07T02:07:45.336Z,15.53
2023-01-07T02:12:51.617Z,14.98
2023-01-07T02:17:57.681Z,14.19
2023-01-07T02:23:03.900Z,15.14
2023-01-07T02:28:10.046Z,14.70
2023-01-07T02:33:16.313Z,14.92
2023-01-07T02:38:22.389Z,14.68
2023-01-07T02:43:28.617Z,15.54
2023-01-07T02:48:34.789Z,15.28
2023-01-07T02:53:41.421Z,15.02
2023-01-07T02:58:47.532Z,16.17
2023-01-07T03:03:53.884Z,15.89
2023-01-07T03:08:59.995Z,15.90
2023-01-07T03:14:06.274Z,15.94
2023-01-07T03:19:12.734Z,16.43
2023-01-07T03:24:18.910Z,15.58
2023-01-07T03:29:25.019Z,15.27
2023-01-07T03:34:31.340Z,15.36
2023-01-07T03:39:37.770Z,15.52
2023-01-07T03:44:44.030Z,15.37
2023-01-07T03:50:26.376Z,16.96
2023-01-07T03:55:32.647Z,14.21
2023-01-07T04:00:38.756Z,14.35
2023-01-07T04:05:45.329Z,13.89
2023-01-07T04:10:51.426Z,13.85
2023-01-07T04:15:57.953Z,13.89
2023-01-07T04:21:04.260Z,13.55
2023-01-07T04:26:10.556Z,13.68
2023-01-07T04:31:16.773Z,13.82
2023-01-07T04:36:23.011Z,13.44
2023-01-07T04:41:29.155Z,13.98
2023-01-07T04:46:35.821Z,13.83
2023-01-07T04:51:41.911Z,13.12
2023-01-07T04:56:48.144Z,13.81
2023-01-07T05:01:54.386Z,12.89
2023-01-07T05:07:00.510Z,12.90
2023-01-07T05:12:06.680Z,13.29
2023-01-07T05:17:12.835Z,12.95
2023-01-07T05:22:18.912Z,12.87
2023-01-07T05:27:25.096Z,12.57
2023-01-07T05:32:31.253Z,12.28
2023-01-07T05:37:37.500Z,12.87
2023-01-07T05:42:43.633Z,12.24
2023-01-07T05:47:49.808Z,11.87
2023-01-07T05:52:56.018Z,11.06
2023-01-07T05:58:02.387Z,10.54
2023-01-07T06:03:08.801Z,10.31
2023-01-07T06:08:15.748Z,9.85
2023-01-07T06:13:21.954Z,10.01
2023-01-07T06:18:28.115Z,9.46
2023-01-07T06:23:34.215Z,9.48
2023-01-07T06:28:40.422Z,9.44
2023-01-07T06:33:46.561Z,9.70
2023-01-07T06:38:52.791Z,9.60
2023-01-07T06:43:58.908Z,9.26
2023-01-07T06:49:05.131Z,9.47
2023-01-07T06:54:11.214Z,8.71
2023-01-07T06:59:17.573Z,7.99
2023-01-07T07:04:23.684Z,7.81
2023-01-07T07:09:29.920Z,7.78
2023-01-07T07:14:35.969Z,7.62
2023-01-07T07:19:42.220Z,7.42
2023-01-07T07:24:48.401Z,7.77
2023-01-07T07:29:54.808Z,7.44
2023-01-07T07:35:01.215Z,7.72
2023-01-07T07:40:07.382Z,8.00
2023-01-07T07:45:13.843Z,7.84
2023-01-07T07:50:20.146Z,8.18
2023-01-07T07:55:26.755Z,8.39
2023-01-07T08:00:32.703Z,8.02
2023-01-07T08:05:38.864Z,7.70
2023-01-07T08:10:45.051Z,7.87
2023-01-07T08:15:51.133Z,8.22
2023-01-07T08:20:57.346Z,7.91
2023-01-07T08:26:03.424Z,7.86
2023-01-07T08:31:09.646Z,7.93
2023-01-07T08:36:22.525Z,7.52
2023-01-07T08:41:21.437Z,7.78
2023-01-07T08:46:27.581Z,7.60
2023-01-07T08:51:33.790Z,7.95
2023-01-07T08:56:39.951Z,7.86
2023-01-07T09:01:46.421Z,7.49
2023-01-07T09:06:52.326Z,6.93
2023-01-07T09:11:58.572Z,6.72
2023-01-07T09:17:04.668Z,6.72
2023-01-07T09:22:10.879Z,5.98
2023-01-07T09:27:16.926Z,5.76
2023-01-07T09:32:23.102Z,5.49
2023-01-07T09:37:29.195Z,4.98
2023-01-07T09:42:35.463Z,4.55
2023-01-07T09:47:41.519Z,4.34
2023-01-07T09:52:47.734Z,3.66
2023-01-07T09:57:53.948Z,3.24
2023-01-07T10:03:00.288Z,3.17
2023-01-07T10:08:29.730Z,3.06
2023-01-07T10:13:12.098Z,2.77
2023-01-07T10:18:19.037Z,2.52
2023-01-07T10:23:25.289Z,2.36
2023-01-07T10:28:31.427Z,2.31
2023-01-07T10:33:37.752Z,2.23
2023-01-07T10:38:43.829Z,2.12
2023-01-07T10:43:50.023Z,2.17
2023-01-07T10:48:56.156Z,2.05
2023-01-07T10:54:02.387Z,1.91
2023-01-07T10:59:09.314Z,2.07
2023-01-07T11:04:15.541Z,2.14
2023-01-07T11:09:21.685Z,1.97
2023-01-07T11:14:27.869Z,2.01
2023-01-07T11:19:34.032Z,1.83
2023-01-07T11:24:40.296Z,1.96
2023-01-07T11:29:46.361Z,1.75
2023-01-07T11:34:52.721Z,1.52
2023-01-07T11:39:58.906Z,1.58
2023-01-07T11:45:05.221Z,1.62
2023-01-07T11:50:11.344Z,1.50
2023-01-07T11:55:17.645Z,1.54
2023-01-07T12:00:23.797Z,1.43
2023-01-07T12:05:29.939Z,1.50
2023-01-07T12:10:39.453Z,1.45
2023-01-07T12:15:45.663Z,1.46
2023-01-07T12:20:51.804Z,1.60
2023-01-07T12:25:58.116Z,1.30
2023-01-07T12:31:04.193Z,1.21
2023-01-07T12:36:13.439Z,1.34
2023-01-07T12:41:19.680Z,1.22
2023-01-07T12:46:25.967Z,1.24
2023-01-07T12:51:32.073Z,1.33
2023-01-07T12:56:38.384Z,1.33
2023-01-07T13:01:44.661Z,1.41
2023-01-07T13:06:50.744Z,1.19
2023-01-07T13:11:56.804Z,1.34
2023-01-07T13:17:03.113Z,1.30
2023-01-07T13:22:09.243Z,1.25
2023-01-07T13:27:15.472Z,1.34
2023-01-07T13:32:21.580Z,1.37
2023-01-07T13:37:27.944Z,1.42
2023-01-07T13:42:34.097Z,1.26
2023-01-07T13:47:40.487Z,1.40
2023-01-07T13:52:46.585Z,1.42
2023-01-07T13:57:52.910Z,1.32
2023-01-07T14:02:59.157Z,1.50
2023-01-07T14:08:05.810Z,1.40
2023-01-07T14:13:11.950Z,1.48
2023-01-07T14:18:18.230Z,1.30
2023-01-07T14:23:24.365Z,2.00
2023-01-07T14:28:30.703Z,1.29
2023-01-07T14:33:36.826Z,1.44
2023-01-07T14:38:43.270Z,1.36
2023-01-07T14:43:49.387Z,1.45
2023-01-07T14:48:55.724Z,1.39
2023-01-07T14:54:02.614Z,1.40
2023-01-07T14:59:08.926Z,1.19
2023-01-07T15:04:15.082Z,1.34
2023-01-07T15:09:22.167Z,1.45
2023-01-07T15:14:28.298Z,1.44
2023-01-07T15:19:34.575Z,1.52
2023-01-07T15:24:40.726Z,1.55
2023-01-07T15:29:46.922Z,1.62
2023-01-07T15:34:53.040Z,1.32
2023-01-07T15:39:59.630Z,1.58
2023-01-07T15:45:05.744Z,1.78
2023-01-07T15:50:11.922Z,1.63
2023-01-07T15:55:18.009Z,1.73
2023-01-07T16:00:24.498Z,1.74
2023-01-07T16:05:30.676Z,1.87
2023-01-07T16:10:36.819Z,1.79
2023-01-07T16:15:43.004Z,1.99
2023-01-07T16:20:49.183Z,1.91
2023-01-07T16:25:55.287Z,1.85
2023-01-07T16:31:01.702Z,1.92
2023-01-07T16:36:07.872Z,1.97
2023-01-07T16:41:14.038Z,2.07
2023-01-07T16:46:20.200Z,2.29
2023-01-07T16:51:26.284Z,2.34
2023-01-07T16:56:32.401Z,2.42
2023-01-07T17:01:38.691Z,2.31
2023-01-07T17:06:44.656Z,2.35
2023-01-07T17:11:50.866Z,2.64
2023-01-07T17:16:57.012Z,2.56
2023-01-07T17:22:03.394Z,2.78
2023-01-07T17:27:09.789Z,2.75
2023-01-07T17:32:15.983Z,2.87
2023-01-07T17:37:22.118Z,2.65
2023-01-07T17:42:28.296Z,2.41
2023-01-07T17:47:34.369Z,2.23
2023-01-07T17:52:40.691Z,2.09
2023-01-07T17:57:46.798Z,2.23
2023-01-07T18:02:53.074Z,2.04
2023-01-07T18:07:59.103Z,2.20
2023-01-07T18:13:05.350Z,2.10
2023-01-07T18:18:11.482Z,2.17
2023-01-07T18:23:17.659Z,2.21
2023-01-07T18:28:23.755Z,2.36
2023-01-07T18:33:30.096Z,2.41
2023-01-07T18:38:36.198Z,2.08
2023-01-07T18:43:42.443Z,2.10
2023-01-07T18:48:48.587Z,2.18
2023-01-07T18:53:54.792Z,2.06
2023-01-07T18:59:00.929Z,2.20
2023-01-07T19:04:07.276Z,2.07
2023-01-07T19:09:13.218Z,2.34
2023-01-07T19:14:19.498Z,2.27
2023-01-07T19:19:26.525Z,2.21
2023-01-07T19:24:31.685Z,2.30
2023-01-07T19:29:37.807Z,2.38
2023-01-07T19:34:44.021Z,2.69
2023-01-07T19:39:50.200Z,2.35
2023-01-07T19:44:56.381Z,2.52
2023-01-07T19:50:02.468Z,2.45
2023-01-07T19:55:08.654Z,2.68
2023-01-07T20:00:14.860Z,2.60
2023-01-07T20:05:21.237Z,2.55
2023-01-07T20:10:27.323Z,2.74
2023-01-07T20:15:33.737Z,2.41
2023-01-07T20:20:39.833Z,2.82
2023-01-07T20:25:46.445Z,2.65
2023-01-07T20:30:52.553Z,2.69
2023-01-07T20:35:58.762Z,2.94
2023-01-07T20:41:05.913Z,2.74
2023-01-07T20:46:12.120Z,2.77
2023-01-07T20:51:18.161Z,2.85
2023-01-07T20:56:24.684Z,2.97
2023-01-07T21:01:30.969Z,2.95
2023-01-07T21:06:37.173Z,3.09
2023-01-07T21:11:43.269Z,2.99
2023-01-07T21:16:49.546Z,3.01
2023-01-07T21:21:55.903Z,3.01
2023-01-07T21:27:02.872Z,3.17
2023-01-07T21:32:07.787Z,3.08
2023-01-07T21:37:14.037Z,3.29
2023-01-07T21:42:20.113Z,3.09
2023-01-07T21:47:26.319Z,2.99
2023-01-07T21:52:32.702Z,2.71
2023-01-07T21:57:38.937Z,2.84
2023-01-07T22:02:45.078Z,2.82
2023-01-07T22:07:51.283Z,2.80
2023-01-07T22:12:57.336Z,2.68
2023-01-07T22:18:03.597Z,2.51
2023-01-07T22:23:09.820Z,2.40
2023-01-07T22:28:16.274Z,2.65
2023-01-07T22:33:22.338Z,2.61
2023-01-07T22:38:28.703Z,2.46
2023-01-07T22:43:34.865Z,2.72
2023-01-07T22:48:41.044Z,2.62
2023-01-07T22:53:47.161Z,2.43
2023-01-07T22:58:53.377Z,2.43
2023-01-07T23:03:59.548Z,2.55
2023-01-07T23:09:06.051Z,2.55
2023-01-07T23:14:12.157Z,2.46
2023-01-07T23:19:18.390Z,2.35
2023-01-07T23:24:24.544Z,2.51
2023-01-07T23:29:30.755Z,2.56
2023-01-07T23:34:36.838Z,2.60
2023-01-07T23:39:43.117Z,2.52
2023-01-07T23:44:49.274Z,2.37
2023-01-07T23:49:55.476Z,2.52
2023-01-07T23:55:01.582Z,2.61
